Time;durP1;ratioP1;P1;durP2;ratioP2;P2;SDS_P1;SDS_P2;PMS_P1;PMS_P2;Temp;Humidity;BMP_temperature;BMP_pressure;BME280_temperature;BME280_humidity;BME280_pressure;Samples;Min_cycle;Max_cycle;Signal;HPM_P1;HPM_P2
2024/01/17 00:01:05;;;;;;;9.65;5.68;;;;;;;;;;5045850;28;20052;-76
2024/01/17 00:03:36;;;;;;;10.65;6.10;;;;;;;;;;5026960;28;20868;-76
2024/01/17 00:06:05;;;;;;;15.02;6.53;;;;;;;;;;5029732;28;20040;-75
2024/01/17 00:08:32;;;;;;;13.65;6.78;;;;;;;;;;5042696;28;20049;-76
2024/01/17 00:10:58;;;;;;;13.50;6.78;;;;;;;;;;5046100;28;20405;-76
2024/01/17 00:13:26;;;;;;;14.98;7.15;;;;;;;;;;5028146;28;20053;-75
2024/01/17 00:15:52;;;;;;;13.73;7.25;;;;;;;;;;5026199;28;20124;-76
2024/01/17 00:18:18;;;;;;;11.93;6.85;;;;;;;;;;5028857;28;20048;-74
2024/01/17 00:20:44;;;;;;;9.93;6.22;;;;;;;;;;5044407;28;20045;-74
2024/01/17 00:23:10;;;;;;;12.80;6.68;;;;;;;;;;5025872;28;20098;-74
2024/01/17 00:25:36;;;;;;;11.90;6.88;;;;;;;;;;5044433;28;20072;-74
2024/01/17 00:28:02;;;;;;;14.27;7.07;;;;;;;;;;5044146;28;20065;-74
2024/01/17 00:30:29;;;;;;;13.45;7.60;;;;;;;;;;5027430;28;20700;-74
2024/01/17 00:32:56;;;;;;;14.70;8.13;;;;;;;;;;5025745;28;20136;-74
2024/01/17 00:35:22;;;;;;;17.33;7.57;;;;;;;;;;5046686;28;20496;-74
2024/01/17 00:37:48;;;;;;;14.40;7.80;;;;;;;;;;5022569;28;20051;-74
2024/01/17 00:40:14;;;;;;;13.65;7.85;;;;;;;;;;5039621;28;20224;-74
2024/01/17 00:42:40;;;;;;;18.73;9.00;;;;;;;;;;5042189;28;20099;-74
2024/01/17 00:45:07;;;;;;;17.08;8.70;;;;;;;;;;5045312;28;20041;-74
2024/01/17 00:47:33;;;;;;;17.05;9.07;;;;;;;;;;5026284;28;20128;-74
2024/01/17 00:49:59;;;;;;;18.38;9.00;;;;;;;;;;5026468;28;20065;-74
2024/01/17 00:52:25;;;;;;;16.25;9.20;;;;;;;;;;5041289;28;20072;-74
2024/01/17 00:54:51;;;;;;;14.25;9.02;;;;;;;;;;5045537;28;20076;-74
2024/01/17 00:57:17;;;;;;;13.93;9.15;;;;;;;;;;5039285;28;20068;-74
2024/01/17 00:59:43;;;;;;;16.27;8.65;;;;;;;;;;5026238;28;20127;-74
2024/01/17 01:02:09;;;;;;;17.13;8.98;;;;;;;;;;5044462;28;20461;-74
2024/01/17 01:04:35;;;;;;;15.88;8.48;;;;;;;;;;5045735;28;20124;-74
2024/01/17 01:07:01;;;;;;;18.15;8.93;;;;;;;;;;5022221;28;20124;-74
2024/01/17 01:09:28;;;;;;;14.20;8.75;;;;;;;;;;5028082;28;20041;-76
2024/01/17 01:11:54;;;;;;;18.75;9.48;;;;;;;;;;5044059;28;20087;-76
2024/01/17 01:14:20;;;;;;;15.13;9.68;;;;;;;;;;5043704;28;20106;-76
2024/01/17 01:16:46;;;;;;;13.32;8.75;;;;;;;;;;5009849;28;20131;-76
2024/01/17 01:19:12;;;;;;;16.42;10.02;;;;;;;;;;5023875;28;20090;-76
2024/01/17 01:21:38;;;;;;;17.40;9.02;;;;;;;;;;5041608;28;20562;-76
2024/01/17 01:24:04;;;;;;;21.67;9.82;;;;;;;;;;5042574;28;20045;-76
2024/01/17 01:26:30;;;;;;;15.18;10.18;;;;;;;;;;5024150;28;20519;-76
2024/01/17 01:28:56;;;;;;;17.13;8.68;;;;;;;;;;5027559;28;20049;-76
2024/01/17 01:31:22;;;;;;;18.95;9.88;;;;;;;;;;5041513;28;20073;-74
2024/01/17 01:33:48;;;;;;;17.35;9.07;;;;;;;;;;5022181;28;20045;-74
2024/01/17 01:36:14;;;;;;;17.25;9.50;;;;;;;;;;5045040;28;20045;-74
2024/01/17 01:38:40;;;;;;;18.02;9.95;;;;;;;;;;5023127;28;20040;-74
2024/01/17 01:41:07;;;;;;;15.15;9.18;;;;;;;;;;5042601;28;20055;-74
2024/01/17 01:43:33;;;;;;;20.80;10.07;;;;;;;;;;5029697;28;20063;-74
2024/01/17 01:46:02;;;;;;;18.70;9.95;;;;;;;;;;5007029;28;20049;-74
2024/01/17 01:48:28;;;;;;;16.40;9.13;;;;;;;;;;5024195;28;20493;-74
2024/01/17 01:50:54;;;;;;;19.52;10.32;;;;;;;;;;5026331;28;20052;-74
2024/01/17 01:53:20;;;;;;;18.90;11.00;;;;;;;;;;5042231;28;20041;-74
2024/01/17 01:55:46;;;;;;;21.23;10.68;;;;;;;;;;5026122;28;20405;-74
2024/01/17 01:58:13;;;;;;;18.63;10.52;;;;;;;;;;5023759;28;20565;-74
2024/01/17 02:00:39;;;;;;;21.00;10.45;;;;;;;;;;5022204;28;20052;-74
2024/01/17 02:03:05;;;;;;;20.95;12.13;;;;;;;;;;5022193;28;20397;-74
2024/01/17 02:05:31;;;;;;;20.17;10.88;;;;;;;;;;5044595;28;20103;-74
2024/01/17 02:07:57;;;;;;;19.65;12.13;;;;;;;;;;5038290;28;20067;-74
2024/01/17 02:10:24;;;;;;;17.55;12.45;;;;;;;;;;5003812;28;20048;-74
2024/01/17 02:12:50;;;;;;;24.90;12.45;;;;;;;;;;5020769;28;20040;-74
2024/01/17 02:15:16;;;;;;;22.27;13.18;;;;;;;;;;5023969;28;20045;-74
2024/01/17 02:17:43;;;;;;;21.90;13.27;;;;;;;;;;5018388;28;20049;-74
2024/01/17 02:20:09;;;;;;;21.20;13.23;;;;;;;;;;5023666;28;20594;-74
2024/01/17 02:22:35;;;;;;;22.52;13.57;;;;;;;;;;5042000;28;20052;-74
2024/01/17 02:25:04;;;;;;;22.30;13.43;;;;;;;;;;5029592;28;20045;-74
2024/01/17 02:27:30;;;;;;;20.58;12.85;;;;;;;;;;5024443;28;20071;-74
2024/01/17 02:29:57;;;;;;;23.90;13.43;;;;;;;;;;5025026;28;20044;-76
2024/01/17 02:32:23;;;;;;;23.42;14.02;;;;;;;;;;5043200;28;20745;-76
2024/01/17 02:34:49;;;;;;;23.25;13.73;;;;;;;;;;5025611;28;20528;-76
2024/01/17 02:37:16;;;;;;;28.30;15.05;;;;;;;;;;5023341;28;20096;-76
2024/01/17 02:39:41;;;;;;;24.73;14.88;;;;;;;;;;5042914;28;20048;-76
2024/01/17 02:42:08;;;;;;;23.23;13.30;;;;;;;;;;5042179;28;20782;-76
2024/01/17 02:44:34;;;;;;;20.73;13.30;;;;;;;;;;5023308;28;20715;-75
2024/01/17 02:47:00;;;;;;;21.73;13.73;;;;;;;;;;5026220;28;20041;-75
2024/01/17 02:49:26;;;;;;;20.95;13.55;;;;;;;;;;5024970;28;20075;-75
2024/01/17 02:51:52;;;;;;;28.30;14.88;;;;;;;;;;5041793;28;20109;-74
2024/01/17 02:54:18;;;;;;;21.20;14.05;;;;;;;;;;5026219;28;20048;-74
2024/01/17 02:56:44;;;;;;;23.52;13.35;;;;;;;;;;5021842;28;20306;-74
2024/01/17 02:59:10;;;;;;;22.85;13.57;;;;;;;;;;5018926;28;20037;-74
2024/01/17 03:01:36;;;;;;;21.05;13.90;;;;;;;;;;5024762;28;20094;-74
2024/01/17 03:04:02;;;;;;;20.35;13.30;;;;;;;;;;5039393;28;20052;-74
2024/01/17 03:06:28;;;;;;;26.17;14.75;;;;;;;;;;5024173;28;20048;-75
2024/01/17 03:08:54;;;;;;;25.55;15.07;;;;;;;;;;5022750;28;20074;-74
2024/01/17 03:11:20;;;;;;;21.77;14.52;;;;;;;;;;5048575;28;20049;-76
2024/01/17 03:13:46;;;;;;;25.45;13.40;;;;;;;;;;5022921;28;20052;-77
2024/01/17 03:16:13;;;;;;;27.15;14.70;;;;;;;;;;5043021;28;20056;-76
2024/01/17 03:18:39;;;;;;;27.13;15.13;;;;;;;;;;5026833;28;20053;-77
2024/01/17 03:21:06;;;;;;;23.55;14.95;;;;;;;;;;5045833;28;20041;-77
2024/01/17 03:23:32;;;;;;;23.95;15.52;;;;;;;;;;5025123;28;20046;-77
2024/01/17 03:25:58;;;;;;;25.70;15.43;;;;;;;;;;5023488;28;20040;-78
2024/01/17 03:28:24;;;;;;;24.45;14.88;;;;;;;;;;5027317;28;20048;-78
2024/01/17 03:30:50;;;;;;;25.55;15.20;;;;;;;;;;5025752;28;20132;-78
2024/01/17 03:33:16;;;;;;;25.20;13.77;;;;;;;;;;5041485;28;20124;-78
2024/01/17 03:35:42;;;;;;;22.75;14.23;;;;;;;;;;5025494;28;20099;-78
2024/01/17 03:38:08;;;;;;;27.08;15.00;;;;;;;;;;5022787;28;20140;-78
2024/01/17 03:40:34;;;;;;;25.52;15.35;;;;;;;;;;5028913;28;20055;-78
2024/01/17 03:43:00;;;;;;;24.08;14.80;;;;;;;;;;5026810;28;20033;-78
2024/01/17 03:45:26;;;;;;;23.20;14.30;;;;;;;;;;5011615;28;20564;-79
2024/01/17 03:47:52;;;;;;;23.80;14.13;;;;;;;;;;5024053;28;20394;-78
2024/01/17 03:50:19;;;;;;;23.35;14.15;;;;;;;;;;5043510;28;20048;-78
2024/01/17 03:52:45;;;;;;;22.38;13.38;;;;;;;;;;5006070;28;20046;-78
2024/01/17 03:55:11;;;;;;;22.00;13.98;;;;;;;;;;5024082;28;20053;-78
2024/01/17 03:57:37;;;;;;;21.70;14.52;;;;;;;;;;5049007;28;20069;-78
2024/01/17 04:00:04;;;;;;;21.15;13.63;;;;;;;;;;5028476;28;20045;-78
2024/01/17 04:02:30;;;;;;;23.65;14.10;;;;;;;;;;5046518;28;20041;-77
2024/01/17 04:04:57;;;;;;;22.77;14.27;;;;;;;;;;5047991;28;20036;-78
2024/01/17 04:07:23;;;;;;;21.08;13.60;;;;;;;;;;5046548;28;20754;-78
2024/01/17 04:09:49;;;;;;;19.60;11.80;;;;;;;;;;5030800;28;20104;-79
2024/01/17 04:12:15;;;;;;;24.25;12.65;;;;;;;;;;5055850;28;20041;-78
2024/01/17 04:14:41;;;;;;;23.67;13.15;;;;;;;;;;5012116;28;20436;-78
2024/01/17 04:17:10;;;;;;;22.30;13.20;;;;;;;;;;5015400;28;20072;-78
2024/01/17 04:19:36;;;;;;;21.33;12.95;;;;;;;;;;5028495;28;20132;-78
2024/01/17 04:22:03;;;;;;;19.92;12.73;;;;;;;;;;5029615;28;20095;-78
2024/01/17 04:24:29;;;;;;;19.80;12.82;;;;;;;;;;5048240;28;20163;-76
2024/01/17 04:26:56;;;;;;;22.40;12.98;;;;;;;;;;5027716;28;20041;-76
2024/01/17 04:29:23;;;;;;;22.42;13.68;;;;;;;;;;5029818;28;20041;-76
2024/01/17 04:31:49;;;;;;;21.73;13.02;;;;;;;;;;5024281;28;20069;-75
2024/01/17 04:34:15;;;;;;;20.92;12.13;;;;;;;;;;5046494;28;20412;-75
2024/01/17 04:36:41;;;;;;;20.48;12.95;;;;;;;;;;5027125;28;20041;-75
2024/01/17 04:39:10;;;;;;;23.75;13.13;;;;;;;;;;5026338;28;20513;-75
2024/01/17 04:41:37;;;;;;;25.08;13.65;;;;;;;;;;5026733;28;20044;-75
2024/01/17 04:44:03;;;;;;;20.33;13.25;;;;;;;;;;5025560;28;20123;-74
2024/01/17 04:46:29;;;;;;;16.75;11.48;;;;;;;;;;5027381;28;20623;-74
2024/01/17 04:48:55;;;;;;;24.92;13.00;;;;;;;;;;5025444;28;20037;-74
2024/01/17 04:51:22;;;;;;;24.88;12.07;;;;;;;;;;5027671;28;20057;-74
2024/01/17 04:53:49;;;;;;;22.13;12.13;;;;;;;;;;5020526;28;20075;-74
2024/01/17 04:56:15;;;;;;;17.48;11.43;;;;;;;;;;5021653;28;20059;-74
2024/01/17 04:58:43;;;;;;;19.15;11.55;;;;;;;;;;5024482;28;20049;-74
2024/01/17 05:01:09;;;;;;;20.60;10.85;;;;;;;;;;5006491;28;20183;-74
2024/01/17 05:03:35;;;;;;;21.08;12.18;;;;;;;;;;5022809;28;20067;-74
2024/01/17 05:06:02;;;;;;;18.52;11.95;;;;;;;;;;5021828;28;20465;-74
2024/01/17 05:08:28;;;;;;;21.20;11.80;;;;;;;;;;5023689;28;20165;-74
2024/01/17 05:10:55;;;;;;;20.20;12.02;;;;;;;;;;5043435;28;20048;-74
2024/01/17 05:13:21;;;;;;;20.10;11.35;;;;;;;;;;5023706;28;20049;-74
2024/01/17 05:15:48;;;;;;;17.35;10.55;;;;;;;;;;5022009;28;20044;-74
2024/01/17 05:18:14;;;;;;;15.75;11.15;;;;;;;;;;5005130;28;20048;-76
2024/01/17 05:20:41;;;;;;;21.20;11.30;;;;;;;;;;5046170;28;20885;-78
2024/01/17 05:23:07;;;;;;;17.17;10.68;;;;;;;;;;5045361;28;20045;-75
2024/01/17 05:25:33;;;;;;;17.92;10.55;;;;;;;;;;5022069;28;20207;-75
2024/01/17 05:27:59;;;;;;;19.40;11.88;;;;;;;;;;5025951;28;20051;-75
2024/01/17 05:30:25;;;;;;;15.45;9.77;;;;;;;;;;5025127;28;20049;-75
2024/01/17 05:32:52;;;;;;;16.73;11.20;;;;;;;;;;5023886;28;20060;-75
2024/01/17 05:35:18;;;;;;;21.17;11.38;;;;;;;;;;5008051;28;20049;-75
2024/01/17 05:37:44;;;;;;;23.58;11.60;;;;;;;;;;5042911;28;20041;-75
2024/01/17 05:40:11;;;;;;;19.23;10.90;;;;;;;;;;5040367;28;20591;-75
2024/01/17 05:42:39;;;;;;;16.27;9.95;;;;;;;;;;5041844;28;20061;-75
2024/01/17 05:45:07;;;;;;;16.67;10.48;;;;;;;;;;5047463;28;20069;-75
2024/01/17 05:47:34;;;;;;;18.02;10.27;;;;;;;;;;5027127;28;20048;-75
2024/01/17 05:50:00;;;;;;;16.27;10.77;;;;;;;;;;5044822;28;20521;-77
2024/01/17 05:52:25;;;;;;;17.17;10.27;;;;;;;;;;5011674;28;20128;-75
2024/01/17 05:54:52;;;;;;;23.10;11.05;;;;;;;;;;5029454;28;20171;-77
2024/01/17 05:57:18;;;;;;;19.42;10.35;;;;;;;;;;5029702;28;20048;-76
2024/01/17 05:59:44;;;;;;;16.77;10.40;;;;;;;;;;5028269;28;20056;-75
2024/01/17 06:02:10;;;;;;;16.30;10.15;;;;;;;;;;5041417;28;20048;-75
2024/01/17 06:04:36;;;;;;;19.90;10.98;;;;;;;;;;5046815;28;20098;-75
2024/01/17 06:07:02;;;;;;;19.58;11.38;;;;;;;;;;5040801;28;20444;-74
2024/01/17 06:09:28;;;;;;;19.23;11.40;;;;;;;;;;5046481;28;20495;-73
2024/01/17 06:11:55;;;;;;;19.23;11.02;;;;;;;;;;5041279;28;20098;-73
2024/01/17 06:14:21;;;;;;;19.67;11.27;;;;;;;;;;5042515;28;20049;-73
2024/01/17 06:16:47;;;;;;;19.00;11.30;;;;;;;;;;5022101;28;20053;-72
2024/01/17 06:19:15;;;;;;;20.50;11.70;;;;;;;;;;5040791;28;20045;-73
2024/01/17 06:21:41;;;;;;;18.67;11.23;;;;;;;;;;5035595;28;20150;-72
2024/01/17 06:24:07;;;;;;;17.48;10.98;;;;;;;;;;5020667;28;20056;-72
2024/01/17 06:26:33;;;;;;;19.83;11.57;;;;;;;;;;5041163;28;20041;-72
2024/01/17 06:28:59;;;;;;;18.90;11.50;;;;;;;;;;5040399;28;20056;-72
2024/01/17 06:31:26;;;;;;;19.17;11.40;;;;;;;;;;5021814;28;20087;-73
2024/01/17 06:33:52;;;;;;;18.70;11.55;;;;;;;;;;5022011;28;20052;-73
2024/01/17 06:36:18;;;;;;;20.90;11.90;;;;;;;;;;5040583;28;20044;-72
2024/01/17 06:38:44;;;;;;;19.70;11.80;;;;;;;;;;5021175;28;20044;-72
2024/01/17 06:41:10;;;;;;;18.33;12.35;;;;;;;;;;5037746;28;22438;-72
2024/01/17 06:43:37;;;;;;;20.15;10.95;;;;;;;;;;5020572;28;20091;-72
2024/01/17 06:46:03;;;;;;;18.95;11.00;;;;;;;;;;5020142;28;20111;-72
2024/01/17 06:48:30;;;;;;;17.35;11.75;;;;;;;;;;5037085;28;20489;-72
2024/01/17 06:50:56;;;;;;;18.58;11.75;;;;;;;;;;5036169;28;20044;-72
2024/01/17 06:53:22;;;;;;;21.05;12.25;;;;;;;;;;5022692;28;20417;-72
2024/01/17 06:55:48;;;;;;;19.08;12.10;;;;;;;;;;5022100;28;20051;-73
2024/01/17 06:58:15;;;;;;;19.67;12.00;;;;;;;;;;5024457;28;20045;-73
2024/01/17 07:00:41;;;;;;;23.02;12.23;;;;;;;;;;5014519;28;20060;-73
2024/01/17 07:03:07;;;;;;;19.70;11.20;;;;;;;;;;5038376;28;20124;-74
2024/01/17 07:05:33;;;;;;;20.30;11.88;;;;;;;;;;5017975;28;20072;-74
2024/01/17 07:07:59;;;;;;;18.20;11.32;;;;;;;;;;5020334;28;20092;-74
2024/01/17 07:10:25;;;;;;;22.85;12.18;;;;;;;;;;5021423;28;20045;-74
2024/01/17 07:12:51;;;;;;;19.73;12.13;;;;;;;;;;5040545;28;20045;-74
2024/01/17 07:15:18;;;;;;;18.38;12.27;;;;;;;;;;5044276;28;20136;-76
2024/01/17 07:17:44;;;;;;;18.30;11.35;;;;;;;;;;5022898;28;20954;-76
2024/01/17 07:20:12;;;;;;;18.45;11.18;;;;;;;;;;5024948;28;20041;-75
2024/01/17 07:22:41;;;;;;;17.67;10.98;;;;;;;;;;5027870;28;20124;-75
2024/01/17 07:25:10;;;;;;;20.70;11.48;;;;;;;;;;5026280;28;20060;-75
2024/01/17 07:27:37;;;;;;;18.40;11.25;;;;;;;;;;5026346;28;20036;-75
2024/01/17 07:30:03;;;;;;;19.23;10.93;;;;;;;;;;5025522;28;20047;-75
2024/01/17 07:32:29;;;;;;;17.23;11.70;;;;;;;;;;5048157;28;20734;-75
2024/01/17 07:34:55;;;;;;;20.58;11.52;;;;;;;;;;5026219;28;20055;-74
2024/01/17 07:37:21;;;;;;;16.95;11.27;;;;;;;;;;5031501;28;20059;-74
2024/01/17 07:39:47;;;;;;;19.75;11.75;;;;;;;;;;5026476;28;20669;-73
2024/01/17 07:42:14;;;;;;;21.30;11.57;;;;;;;;;;5040926;28;20057;-73
2024/01/17 07:44:40;;;;;;;19.27;11.48;;;;;;;;;;5043185;28;20045;-73
2024/01/17 07:47:06;;;;;;;16.23;10.15;;;;;;;;;;5022213;28;20555;-73
2024/01/17 07:49:36;;;;;;;18.35;11.10;;;;;;;;;;5025498;28;20040;-73
2024/01/17 07:52:02;;;;;;;17.38;11.05;;;;;;;;;;5024560;28;20132;-73
2024/01/17 07:54:28;;;;;;;17.73;10.63;;;;;;;;;;5022613;28;20049;-73
2024/01/17 07:56:54;;;;;;;18.40;10.75;;;;;;;;;;5044049;28;20041;-73
2024/01/17 07:59:20;;;;;;;18.27;10.63;;;;;;;;;;5024124;28;20040;-73
2024/01/17 08:01:48;;;;;;;21.73;9.88;;;;;;;;;;5026528;28;20099;-73
2024/01/17 08:04:14;;;;;;;22.58;11.05;;;;;;;;;;5026848;28;20040;-73
2024/01/17 08:06:40;;;;;;;17.83;10.05;;;;;;;;;;5006679;28;20079;-72
2024/01/17 08:09:20;;;;;;;16.25;11.13;;;;;;;;;;5039453;28;20051;-72
2024/01/17 08:11:47;;;;;;;15.73;10.35;;;;;;;;;;5045684;28;20696;-73
2024/01/17 08:14:13;;;;;;;15.82;10.30;;;;;;;;;;5023222;28;20132;-73
2024/01/17 08:16:39;;;;;;;21.67;12.10;;;;;;;;;;5024344;28;20132;-73
2024/01/17 08:19:05;;;;;;;16.42;11.20;;;;;;;;;;5028661;28;20094;-73
2024/01/17 08:21:31;;;;;;;19.75;11.38;;;;;;;;;;5045615;28;20114;-72
2024/01/17 08:23:59;;;;;;;18.05;10.85;;;;;;;;;;5040071;28;20073;-72
2024/01/17 08:26:25;;;;;;;19.35;11.23;;;;;;;;;;5046630;28;20049;-72
2024/01/17 08:28:51;;;;;;;19.98;11.48;;;;;;;;;;5046590;28;20033;-72
2024/01/17 08:31:17;;;;;;;17.60;10.88;;;;;;;;;;5030020;28;20053;-72
2024/01/17 08:33:44;;;;;;;18.90;11.73;;;;;;;;;;5044362;28;20044;-72
2024/01/17 08:36:10;;;;;;;20.00;11.48;;;;;;;;;;5044216;28;20041;-72
2024/01/17 08:38:36;;;;;;;15.70;11.45;;;;;;;;;;5027421;28;20128;-71
2024/01/17 08:41:02;;;;;;;17.10;10.57;;;;;;;;;;5023989;28;20041;-72
2024/01/17 08:43:28;;;;;;;18.95;11.43;;;;;;;;;;5027865;28;20524;-72
2024/01/17 08:45:54;;;;;;;16.80;11.60;;;;;;;;;;5041515;28;20037;-72
2024/01/17 08:48:20;;;;;;;21.65;12.02;;;;;;;;;;5024531;28;20097;-72
2024/01/17 08:50:46;;;;;;;17.63;10.90;;;;;;;;;;5022778;28;20127;-72
2024/01/17 08:53:12;;;;;;;18.08;11.90;;;;;;;;;;5046364;28;20037;-73
2024/01/17 08:55:39;;;;;;;17.45;10.90;;;;;;;;;;5044134;28;20048;-73
2024/01/17 08:58:06;;;;;;;16.65;10.95;;;;;;;;;;5023461;28;20052;-72
2024/01/17 09:00:32;;;;;;;20.65;11.43;;;;;;;;;;5022848;28;20212;-72
2024/01/17 09:02:58;;;;;;;23.67;10.82;;;;;;;;;;5027283;28;20155;-74
2024/01/17 09:05:24;;;;;;;18.83;10.35;;;;;;;;;;5025330;28;20481;-73
2024/01/17 09:07:50;;;;;;;16.75;10.68;;;;;;;;;;5042670;28;20051;-73
2024/01/17 09:10:17;;;;;;;21.27;11.35;;;;;;;;;;5044449;28;20048;-73
2024/01/17 09:12:46;;;;;;;18.35;10.10;;;;;;;;;;5045378;28;20092;-73
2024/01/17 09:15:12;;;;;;;23.55;11.50;;;;;;;;;;5046608;28;21075;-73
2024/01/17 09:17:38;;;;;;;13.30;10.13;;;;;;;;;;5045595;28;20136;-73
2024/01/17 09:20:06;;;;;;;22.10;11.82;;;;;;;;;;5045970;28;20085;-74
2024/01/17 09:22:32;;;;;;;17.95;11.18;;;;;;;;;;5047372;28;20056;-74
2024/01/17 09:25:00;;;;;;;15.65;10.18;;;;;;;;;;5045291;28;20497;-73
2024/01/17 09:27:27;;;;;;;18.77;10.13;;;;;;;;;;5051403;28;20117;-73
2024/01/17 09:29:53;;;;;;;16.27;10.18;;;;;;;;;;5026239;28;20123;-73
2024/01/17 09:32:19;;;;;;;17.02;10.38;;;;;;;;;;5026439;28;20165;-73
2024/01/17 09:34:47;;;;;;;15.88;9.88;;;;;;;;;;5024661;28;20486;-74
2024/01/17 09:37:14;;;;;;;17.00;9.85;;;;;;;;;;5044298;28;20099;-73
2024/01/17 09:39:40;;;;;;;16.80;9.95;;;;;;;;;;5024928;28;20040;-72
2024/01/17 09:42:06;;;;;;;18.02;10.05;;;;;;;;;;5042261;28;20049;-72
2024/01/17 09:44:33;;;;;;;18.02;10.25;;;;;;;;;;5025908;28;20045;-72
2024/01/17 09:46:59;;;;;;;19.42;10.98;;;;;;;;;;5026850;28;20118;-72
2024/01/17 09:49:27;;;;;;;15.82;10.70;;;;;;;;;;5025650;28;20051;-72
2024/01/17 09:51:53;;;;;;;13.93;9.48;;;;;;;;;;5042035;28;20049;-72
2024/01/17 09:54:24;;;;;;;17.92;10.02;;;;;;;;;;5043036;28;20631;-72
2024/01/17 09:56:50;;;;;;;15.10;9.77;;;;;;;;;;5026103;28;20063;-73
2024/01/17 09:59:21;;;;;;;16.40;9.35;;;;;;;;;;5023538;28;20507;-72
2024/01/17 10:01:48;;;;;;;13.85;9.35;;;;;;;;;;5039790;28;20523;-72
2024/01/17 10:04:14;;;;;;;15.10;9.32;;;;;;;;;;5042831;28;20033;-72
2024/01/17 10:06:42;;;;;;;15.55;9.13;;;;;;;;;;5003997;28;20040;-72
2024/01/17 10:09:09;;;;;;;15.70;9.13;;;;;;;;;;5023848;28;20044;-73
2024/01/17 10:11:35;;;;;;;13.48;9.15;;;;;;;;;;5043298;28;20393;-73
2024/01/17 10:14:02;;;;;;;13.25;8.70;;;;;;;;;;5021307;28;20063;-72
2024/01/17 10:16:28;;;;;;;14.35;9.32;;;;;;;;;;5024041;28;20044;-71
2024/01/17 10:18:54;;;;;;;14.90;10.15;;;;;;;;;;5023830;28;20051;-72
2024/01/17 10:21:20;;;;;;;15.20;9.18;;;;;;;;;;5021555;28;20052;-72
2024/01/17 10:23:46;;;;;;;17.48;9.48;;;;;;;;;;5044133;28;20041;-72
2024/01/17 10:26:12;;;;;;;15.82;8.77;;;;;;;;;;5043840;28;20236;-72
2024/01/17 10:28:38;;;;;;;13.57;9.73;;;;;;;;;;5022694;28;20119;-72
2024/01/17 10:31:05;;;;;;;15.73;9.60;;;;;;;;;;5042127;28;20505;-72
2024/01/17 10:33:32;;;;;;;14.80;9.27;;;;;;;;;;5044592;28;20048;-72
2024/01/17 10:35:58;;;;;;;15.60;9.10;;;;;;;;;;5032976;28;20059;-73
2024/01/17 10:38:25;;;;;;;12.82;8.43;;;;;;;;;;5041244;28;20105;-72
2024/01/17 10:41:04;;;;;;;13.40;8.48;;;;;;;;;;5040858;28;20045;-72
2024/01/17 10:43:30;;;;;;;15.50;9.30;;;;;;;;;;5021545;28;20127;-72
2024/01/17 10:45:56;;;;;;;14.88;8.88;;;;;;;;;;5041552;28;20124;-72
2024/01/17 10:48:25;;;;;;;12.50;8.68;;;;;;;;;;5042087;28;20049;-72
2024/01/17 10:50:54;;;;;;;17.52;8.95;;;;;;;;;;5024143;28;20048;-73
2024/01/17 10:53:20;;;;;;;12.35;8.88;;;;;;;;;;5019967;28;20094;-73
2024/01/17 10:55:48;;;;;;;13.75;9.32;;;;;;;;;;5042847;28;20136;-74
2024/01/17 10:58:14;;;;;;;13.88;9.48;;;;;;;;;;5027643;28;20072;-73
2024/01/17 11:00:45;;;;;;;14.93;9.40;;;;;;;;;;5043945;28;20045;-73
2024/01/17 11:03:16;;;;;;;16.85;9.32;;;;;;;;;;5043838;28;20076;-75
2024/01/17 11:05:44;;;;;;;15.77;9.23;;;;;;;;;;5025297;28;20128;-74
2024/01/17 11:08:11;;;;;;;18.35;9.77;;;;;;;;;;5043616;28;20132;-75
2024/01/17 11:10:37;;;;;;;13.63;9.07;;;;;;;;;;5025963;28;20128;-75
2024/01/17 11:13:04;;;;;;;14.57;9.57;;;;;;;;;;5042541;28;20127;-75
2024/01/17 11:15:31;;;;;;;17.23;9.50;;;;;;;;;;5022614;28;20168;-75
2024/01/17 11:17:57;;;;;;;13.75;8.77;;;;;;;;;;5043194;28;20041;-75
2024/01/17 11:20:24;;;;;;;14.20;8.52;;;;;;;;;;5023602;28;20048;-75
2024/01/17 11:22:50;;;;;;;15.43;8.82;;;;;;;;;;5026138;28;20045;-74
2024/01/17 11:25:49;;;;;;;15.90;9.77;;;;;;;;;;5029079;28;20120;-74
2024/01/17 11:28:21;;;;;;;15.95;8.73;;;;;;;;;;4991909;28;20493;-74
2024/01/17 11:31:06;;;;;;;17.08;8.70;;;;;;;;;;5043272;28;20049;-75
2024/01/17 11:33:32;;;;;;;14.10;8.85;;;;;;;;;;5018670;28;20048;-74
2024/01/17 11:35:59;;;;;;;15.35;9.18;;;;;;;;;;5039902;28;20049;-75
2024/01/17 11:38:25;;;;;;;15.80;9.05;;;;;;;;;;5025848;28;20080;-76
2024/01/17 11:40:51;;;;;;;13.73;8.52;;;;;;;;;;5039031;28;20055;-76
2024/01/17 11:43:17;;;;;;;12.73;9.15;;;;;;;;;;5038891;28;20501;-77
2024/01/17 11:45:44;;;;;;;14.32;8.32;;;;;;;;;;5029226;28;20086;-77
2024/01/17 11:48:29;;;;;;;12.77;9.07;;;;;;;;;;5025478;28;20037;-76
2024/01/17 11:51:01;;;;;;;13.43;8.93;;;;;;;;;;5026774;28;20060;-78
2024/01/17 11:53:28;;;;;;;13.77;8.38;;;;;;;;;;5046175;28;20041;-77
2024/01/17 11:55:58;;;;;;;14.40;8.88;;;;;;;;;;5022458;28;20073;-77
2024/01/17 11:58:43;;;;;;;14.40;8.82;;;;;;;;;;5027813;28;20911;-78
2024/01/17 12:01:17;;;;;;;12.48;8.38;;;;;;;;;;5025422;28;20107;-78
2024/01/17 12:03:43;;;;;;;14.27;8.82;;;;;;;;;;5045220;28;20208;-78
2024/01/17 12:06:10;;;;;;;12.75;8.52;;;;;;;;;;5045644;28;20041;-79
2024/01/17 12:08:36;;;;;;;15.32;9.00;;;;;;;;;;5024820;28;20047;-79
2024/01/17 12:11:03;;;;;;;14.05;8.77;;;;;;;;;;5046808;28;20041;-78
2024/01/17 12:13:29;;;;;;;16.35;8.93;;;;;;;;;;5044999;28;20045;-78
2024/01/17 12:15:55;;;;;;;16.00;9.65;;;;;;;;;;5042154;28;20045;-78
2024/01/17 12:18:23;;;;;;;13.02;8.48;;;;;;;;;;5034957;28;20990;-78
2024/01/17 12:20:49;;;;;;;14.35;9.52;;;;;;;;;;5050458;28;20136;-78
2024/01/17 12:23:16;;;;;;;14.10;8.40;;;;;;;;;;5031433;28;20686;-79
2024/01/17 12:25:42;;;;;;;12.25;9.27;;;;;;;;;;5027597;28;20037;-79
2024/01/17 12:28:09;;;;;;;34.85;9.95;;;;;;;;;;5026854;28;20102;-79
2024/01/17 12:30:35;;;;;;;13.30;8.75;;;;;;;;;;5045956;28;20033;-79
2024/01/17 12:33:02;;;;;;;13.90;8.98;;;;;;;;;;5039656;28;20069;-79
2024/01/17 12:35:28;;;;;;;13.77;8.85;;;;;;;;;;5051415;28;20049;-80
2024/01/17 12:37:55;;;;;;;11.77;8.73;;;;;;;;;;5049589;28;20037;-79
2024/01/17 12:40:21;;;;;;;17.73;9.18;;;;;;;;;;5047355;28;20044;-79
2024/01/17 12:42:49;;;;;;;15.95;9.23;;;;;;;;;;5028882;28;20040;-79
2024/01/17 12:45:16;;;;;;;16.70;9.57;;;;;;;;;;5030497;28;20033;-79
2024/01/17 12:47:43;;;;;;;14.02;8.63;;;;;;;;;;5031885;28;20060;-79
2024/01/17 12:50:12;;;;;;;14.40;9.25;;;;;;;;;;5044002;28;20045;-78
2024/01/17 12:52:38;;;;;;;15.52;9.68;;;;;;;;;;5049672;28;20048;-79
2024/01/17 12:55:05;;;;;;;19.50;9.18;;;;;;;;;;5030180;28;20044;-79
2024/01/17 12:57:31;;;;;;;14.52;8.98;;;;;;;;;;5046255;28;20409;-79
2024/01/17 12:59:57;;;;;;;12.60;8.45;;;;;;;;;;5031490;28;20861;-79
2024/01/17 13:02:23;;;;;;;11.82;8.20;;;;;;;;;;5023209;28;20054;-79
2024/01/17 13:05:08;;;;;;;14.30;8.60;;;;;;;;;;5035354;28;20068;-79
2024/01/17 13:07:34;;;;;;;13.70;8.00;;;;;;;;;;5032236;28;20052;-79
2024/01/17 13:10:14;;;;;;;14.18;8.18;;;;;;;;;;5030020;28;20036;-79
2024/01/17 13:12:40;;;;;;;12.35;8.38;;;;;;;;;;5027780;28;20064;-79
2024/01/17 13:15:10;;;;;;;13.57;7.72;;;;;;;;;;5032629;28;20079;-79
2024/01/17 13:17:36;;;;;;;14.95;7.85;;;;;;;;;;5030209;28;20041;-79
2024/01/17 13:20:15;;;;;;;14.65;8.02;;;;;;;;;;5026456;28;20037;-79
2024/01/17 13:22:41;;;;;;;11.95;8.20;;;;;;;;;;5025091;28;20537;-79
2024/01/17 13:25:07;;;;;;;12.20;7.80;;;;;;;;;;5027367;28;20044;-79
2024/01/17 13:27:33;;;;;;;12.68;8.05;;;;;;;;;;5046321;28;20056;-78
2024/01/17 13:30:03;;;;;;;13.77;8.27;;;;;;;;;;5025132;28;20033;-78
2024/01/17 13:32:30;;;;;;;13.25;7.82;;;;;;;;;;5047575;28;20048;-78
2024/01/17 13:34:56;;;;;;;11.70;8.00;;;;;;;;;;5045374;28;20873;-78
2024/01/17 13:37:22;;;;;;;14.30;8.35;;;;;;;;;;5031739;28;20045;-78
2024/01/17 13:39:48;;;;;;;14.23;8.70;;;;;;;;;;5048151;28;20049;-78
2024/01/17 13:42:14;;;;;;;14.13;7.40;;;;;;;;;;5048751;28;20045;-78
2024/01/17 13:44:40;;;;;;;16.60;8.05;;;;;;;;;;5028664;28;20074;-78
2024/01/17 13:47:06;;;;;;;12.35;7.95;;;;;;;;;;5025928;28;20051;-78
2024/01/17 13:49:36;;;;;;;14.93;7.95;;;;;;;;;;5045511;28;20061;-78
2024/01/17 13:52:03;;;;;;;19.70;8.45;;;;;;;;;;5045367;28;20094;-78
2024/01/17 13:54:30;;;;;;;15.65;8.40;;;;;;;;;;5045053;28;20079;-77
2024/01/17 13:56:57;;;;;;;12.52;8.25;;;;;;;;;;5027933;28;20120;-77
2024/01/17 13:59:23;;;;;;;14.35;8.40;;;;;;;;;;5044824;28;20136;-77
2024/01/17 14:01:49;;;;;;;14.13;8.30;;;;;;;;;;5030131;28;20123;-77
2024/01/17 14:04:15;;;;;;;13.55;8.48;;;;;;;;;;5045145;28;20504;-77
2024/01/17 14:06:41;;;;;;;13.25;8.52;;;;;;;;;;5049666;28;20029;-77
2024/01/17 14:09:08;;;;;;;15.05;9.15;;;;;;;;;;5028770;28;20043;-76
2024/01/17 14:11:38;;;;;;;11.50;8.13;;;;;;;;;;5030364;28;20118;-77
2024/01/17 14:14:05;;;;;;;13.20;8.52;;;;;;;;;;5045611;28;20052;-77
2024/01/17 14:16:31;;;;;;;13.65;8.45;;;;;;;;;;5016072;28;20044;-77
2024/01/17 14:18:58;;;;;;;13.02;8.77;;;;;;;;;;5045365;28;20099;-77
2024/01/17 14:21:24;;;;;;;13.57;8.38;;;;;;;;;;5026066;28;20102;-77